sensor_id;sensor_type;location;lat;lon;timestamp;P1;durP1;ratioP1;P2;durP2;ratioP2
66680;SDS011;53575;51.366;12.350;2023-06-22T00:02:12;0.10;;;0.10;;
66680;SDS011;53575;51.366;12.350;2023-06-22T00:04:37;0.10;;;0.10;;
66680;SDS011;53575;51.366;12.350;2023-06-22T00:07:03;0.10;;;0.10;;
66680;SDS011;53575;51.366;12.350;2023-06-22T00:09:28;0.10;;;0.10;;
66680;SDS011;53575;51.366;12.350;2023-06-22T00:11:55;0.10;;;0.10;;
66680;SDS011;53575;51.366;12.350;2023-06-22T00:14:20;0.10;;;0.10;;
66680;SDS011;53575;51.366;12.350;2023-06-22T00:16:45;0.10;;;0.10;;
66680;SDS011;53575;51.366;12.350;2023-06-22T00:19:13;0.10;;;0.10;;
66680;SDS011;53575;51.366;12.350;2023-06-22T00:21:39;0.10;;;0.10;;
66680;SDS011;53575;51.366;12.350;2023-06-22T00:24:04;0.10;;;0.10;;
66680;SDS011;53575;51.366;12.350;2023-06-22T00:26:31;0.10;;;0.10;;
66680;SDS011;53575;51.366;12.350;2023-06-22T00:28:56;0.10;;;0.10;;
66680;SDS011;53575;51.366;12.350;2023-06-22T00:31:22;0.10;;;0.10;;
66680;SDS011;53575;51.366;12.350;2023-06-22T00:33:47;0.10;;;0.10;;
66680;SDS011;53575;51.366;12.350;2023-06-22T00:36:12;0.10;;;0.10;;
66680;SDS011;53575;51.366;12.350;2023-06-22T00:38:41;0.10;;;0.10;;
66680;SDS011;53575;51.366;12.350;2023-06-22T00:41:07;0.10;;;0.10;;
66680;SDS011;53575;51.366;12.350;2023-06-22T00:43:32;0.10;;;0.10;;
66680;SDS011;53575;51.366;12.350;2023-06-22T00:45:57;0.10;;;0.10;;
66680;SDS011;53575;51.366;12.350;2023-06-22T00:48:23;0.17;;;0.17;;
66680;SDS011;53575;51.366;12.350;2023-06-22T00:50:49;0.10;;;0.10;;
66680;SDS011;53575;51.366;12.350;2023-06-22T00:53:16;0.10;;;0.10;;
66680;SDS011;53575;51.366;12.350;2023-06-22T00:55:42;0.10;;;0.10;;
66680;SDS011;53575;51.366;12.350;2023-06-22T00:58:10;0.10;;;0.10;;
66680;SDS011;53575;51.366;12.350;2023-06-22T01:00:36;0.10;;;0.10;;
66680;SDS011;53575;51.366;12.350;2023-06-22T01:03:03;0.10;;;0.10;;
66680;SDS011;53575;51.366;12.350;2023-06-22T01:05:29;0.10;;;0.10;;
66680;SDS011;53575;51.366;12.350;2023-06-22T01:11:03;0.10;;;0.10;;
66680;SDS011;53575;51.366;12.350;2023-06-22T01:16:31;0.10;;;0.10;;
66680;SDS011;53575;51.366;12.350;2023-06-22T01:19:00;0.10;;;0.10;;
66680;SDS011;53575;51.366;12.350;2023-06-22T01:21:34;0.10;;;0.10;;
66680;SDS011;53575;51.366;12.350;2023-06-22T01:29:24;0.10;;;0.10;;
66680;SDS011;53575;51.366;12.350;2023-06-22T01:31:52;0.10;;;0.10;;
66680;SDS011;53575;51.366;12.350;2023-06-22T01:34:21;0.10;;;0.10;;
66680;SDS011;53575;51.366;12.350;2023-06-22T01:36:48;0.10;;;0.10;;
66680;SDS011;53575;51.366;12.350;2023-06-22T01:39:15;0.10;;;0.10;;
66680;SDS011;53575;51.366;12.350;2023-06-22T01:41:41;0.10;;;0.10;;
66680;SDS011;53575;51.366;12.350;2023-06-22T01:44:08;0.10;;;0.10;;
66680;SDS011;53575;51.366;12.350;2023-06-22T01:46:34;0.10;;;0.10;;
66680;SDS011;53575;51.366;12.350;2023-06-22T01:49:01;0.10;;;0.10;;
66680;SDS011;53575;51.366;12.350;2023-06-22T01:51:28;0.10;;;0.10;;
66680;SDS011;53575;51.366;12.350;2023-06-22T01:53:55;0.10;;;0.10;;
66680;SDS011;53575;51.366;12.350;2023-06-22T01:56:20;0.10;;;0.10;;
66680;SDS011;53575;51.366;12.350;2023-06-22T01:59:09;0.10;;;0.10;;
66680;SDS011;53575;51.366;12.350;2023-06-22T02:01:52;0.10;;;0.10;;
66680;SDS011;53575;51.366;12.350;2023-06-22T02:04:27;0.10;;;0.10;;
66680;SDS011;53575;51.366;12.350;2023-06-22T02:07:00;0.10;;;0.10;;
66680;SDS011;53575;51.366;12.350;2023-06-22T02:09:29;0.10;;;0.10;;
66680;SDS011;53575;51.366;12.350;2023-06-22T02:11:56;0.10;;;0.10;;
66680;SDS011;53575;51.366;12.350;2023-06-22T02:14:25;0.10;;;0.10;;
66680;SDS011;53575;51.366;12.350;2023-06-22T02:16:51;0.10;;;0.10;;
66680;SDS011;53575;51.366;12.350;2023-06-22T02:19:16;0.10;;;0.10;;
66680;SDS011;53575;51.366;12.350;2023-06-22T02:21:44;0.10;;;0.10;;
66680;SDS011;53575;51.366;12.350;2023-06-22T02:24:10;0.10;;;0.10;;
66680;SDS011;53575;51.366;12.350;2023-06-22T02:26:35;0.10;;;0.10;;
66680;SDS011;53575;51.366;12.350;2023-06-22T02:29:03;0.10;;;0.10;;
66680;SDS011;53575;51.366;12.350;2023-06-22T02:31:28;0.10;;;0.10;;
66680;SDS011;53575;51.366;12.350;2023-06-22T02:33:58;0.10;;;0.10;;
66680;SDS011;53575;51.366;12.350;2023-06-22T02:36:24;0.10;;;0.10;;
66680;SDS011;53575;51.366;12.350;2023-06-22T02:38:52;0.10;;;0.10;;
66680;SDS011;53575;51.366;12.350;2023-06-22T02:41:19;0.10;;;0.10;;
66680;SDS011;53575;51.366;12.350;2023-06-22T02:43:47;0.10;;;0.10;;
66680;SDS011;53575;51.366;12.350;2023-06-22T02:46:13;0.10;;;0.10;;
66680;SDS011;53575;51.366;12.350;2023-06-22T02:48:41;0.10;;;0.10;;
66680;SDS011;53575;51.366;12.350;2023-06-22T02:51:07;0.10;;;0.10;;
66680;SDS011;53575;51.366;12.350;2023-06-22T02:53:33;0.10;;;0.10;;
66680;SDS011;53575;51.366;12.350;2023-06-22T02:56:00;0.10;;;0.10;;
66680;SDS011;53575;51.366;12.350;2023-06-22T02:58:26;0.10;;;0.10;;
66680;SDS011;53575;51.366;12.350;2023-06-22T03:00:52;0.10;;;0.10;;
66680;SDS011;53575;51.366;12.350;2023-06-22T03:03:18;0.10;;;0.10;;
66680;SDS011;53575;51.366;12.350;2023-06-22T03:05:44;0.10;;;0.10;;
66680;SDS011;53575;51.366;12.350;2023-06-22T03:08:10;0.10;;;0.10;;
66680;SDS011;53575;51.366;12.350;2023-06-22T03:10:35;0.08;;;0.08;;
66680;SDS011;53575;51.366;12.350;2023-06-22T03:13:01;0.10;;;0.10;;
66680;SDS011;53575;51.366;12.350;2023-06-22T03:15:26;0.10;;;0.10;;
66680;SDS011;53575;51.366;12.350;2023-06-22T03:17:54;0.10;;;0.10;;
66680;SDS011;53575;51.366;12.350;2023-06-22T03:20:20;0.10;;;0.10;;
66680;SDS011;53575;51.366;12.350;2023-06-22T03:22:45;0.10;;;0.10;;
66680;SDS011;53575;51.366;12.350;2023-06-22T03:25:11;0.10;;;0.10;;
66680;SDS011;53575;51.366;12.350;2023-06-22T03:27:38;0.10;;;0.10;;
66680;SDS011;53575;51.366;12.350;2023-06-22T03:30:05;0.10;;;0.10;;
66680;SDS011;53575;51.366;12.350;2023-06-22T03:32:32;0.10;;;0.10;;
66680;SDS011;53575;51.366;12.350;2023-06-22T03:34:57;0.10;;;0.10;;
66680;SDS011;53575;51.366;12.350;2023-06-22T03:37:24;0.10;;;0.10;;
66680;SDS011;53575;51.366;12.350;2023-06-22T03:39:50;0.10;;;0.10;;
66680;SDS011;53575;51.366;12.350;2023-06-22T03:42:16;0.10;;;0.10;;
66680;SDS011;53575;51.366;12.350;2023-06-22T03:44:41;0.10;;;0.10;;
66680;SDS011;53575;51.366;12.350;2023-06-22T03:47:07;0.10;;;0.10;;
66680;SDS011;53575;51.366;12.350;2023-06-22T03:49:33;0.10;;;0.10;;
66680;SDS011;53575;51.366;12.350;2023-06-22T03:51:59;0.10;;;0.10;;
66680;SDS011;53575;51.366;12.350;2023-06-22T03:54:26;0.10;;;0.10;;
66680;SDS011;53575;51.366;12.350;2023-06-22T03:56:53;0.10;;;0.10;;
66680;SDS011;53575;51.366;12.350;2023-06-22T03:59:18;0.10;;;0.10;;
66680;SDS011;53575;51.366;12.350;2023-06-22T04:01:43;0.10;;;0.10;;
66680;SDS011;53575;51.366;12.350;2023-06-22T04:04:09;0.10;;;0.10;;
66680;SDS011;53575;51.366;12.350;2023-06-22T04:06:35;0.10;;;0.10;;
66680;SDS011;53575;51.366;12.350;2023-06-22T04:09:00;0.08;;;0.08;;
66680;SDS011;53575;51.366;12.350;2023-06-22T04:11:26;0.10;;;0.10;;
66680;SDS011;53575;51.366;12.350;2023-06-22T04:13:51;0.10;;;0.10;;
66680;SDS011;53575;51.366;12.350;2023-06-22T04:16:17;0.10;;;0.10;;
66680;SDS011;53575;51.366;12.350;2023-06-22T04:18:42;0.10;;;0.10;;
66680;SDS011;53575;51.366;12.350;2023-06-22T04:21:08;0.10;;;0.10;;
66680;SDS011;53575;51.366;12.350;2023-06-22T04:23:33;0.10;;;0.10;;
66680;SDS011;53575;51.366;12.350;2023-06-22T04:25:58;0.10;;;0.10;;
66680;SDS011;53575;51.366;12.350;2023-06-22T04:28:24;0.10;;;0.10;;
66680;SDS011;53575;51.366;12.350;2023-06-22T04:30:50;0.10;;;0.10;;
66680;SDS011;53575;51.366;12.350;2023-06-22T04:33:15;0.10;;;0.10;;
66680;SDS011;53575;51.366;12.350;2023-06-22T04:35:41;0.10;;;0.10;;
66680;SDS011;53575;51.366;12.350;2023-06-22T04:38:09;0.10;;;0.10;;
66680;SDS011;53575;51.366;12.350;2023-06-22T04:40:38;0.10;;;0.10;;
66680;SDS011;53575;51.366;12.350;2023-06-22T04:43:04;0.10;;;0.10;;
66680;SDS011;53575;51.366;12.350;2023-06-22T04:45:31;0.10;;;0.10;;
66680;SDS011;53575;51.366;12.350;2023-06-22T04:47:57;0.10;;;0.10;;
66680;SDS011;53575;51.366;12.350;2023-06-22T04:50:22;0.10;;;0.10;;
66680;SDS011;53575;51.366;12.350;2023-06-22T04:52:48;0.10;;;0.10;;
66680;SDS011;53575;51.366;12.350;2023-06-22T04:55:15;0.10;;;0.10;;
66680;SDS011;53575;51.366;12.350;2023-06-22T04:57:48;0.10;;;0.10;;
66680;SDS011;53575;51.366;12.350;2023-06-22T05:00:15;0.20;;;0.20;;
66680;SDS011;53575;51.366;12.350;2023-06-22T05:02:43;0.10;;;0.10;;
66680;SDS011;53575;51.366;12.350;2023-06-22T05:05:10;0.10;;;0.10;;
66680;SDS011;53575;51.366;12.350;2023-06-22T05:07:38;0.10;;;0.10;;
66680;SDS011;53575;51.366;12.350;2023-06-22T05:10:08;0.10;;;0.10;;
66680;SDS011;53575;51.366;12.350;2023-06-22T05:12:35;0.10;;;0.10;;
66680;SDS011;53575;51.366;12.350;2023-06-22T05:15:00;0.10;;;0.10;;
66680;SDS011;53575;51.366;12.350;2023-06-22T05:17:26;0.45;;;0.45;;
66680;SDS011;53575;51.366;12.350;2023-06-22T05:19:52;0.10;;;0.10;;
66680;SDS011;53575;51.366;12.350;2023-06-22T05:22:18;0.10;;;0.10;;
66680;SDS011;53575;51.366;12.350;2023-06-22T05:24:44;0.10;;;0.10;;
66680;SDS011;53575;51.366;12.350;2023-06-22T05:27:09;0.10;;;0.10;;
66680;SDS011;53575;51.366;12.350;2023-06-22T05:29:38;0.10;;;0.10;;
66680;SDS011;53575;51.366;12.350;2023-06-22T05:32:04;0.10;;;0.10;;
66680;SDS011;53575;51.366;12.350;2023-06-22T05:34:30;0.10;;;0.10;;
66680;SDS011;53575;51.366;12.350;2023-06-22T05:36:55;2.30;;;0.85;;
66680;SDS011;53575;51.366;12.350;2023-06-22T05:39:20;0.10;;;0.10;;
66680;SDS011;53575;51.366;12.350;2023-06-22T05:41:46;0.10;;;0.10;;
66680;SDS011;53575;51.366;12.350;2023-06-22T05:44:12;0.10;;;0.10;;
66680;SDS011;53575;51.366;12.350;2023-06-22T05:46:40;0.10;;;0.10;;
66680;SDS011;53575;51.366;12.350;2023-06-22T05:49:09;0.10;;;0.10;;
66680;SDS011;53575;51.366;12.350;2023-06-22T05:51:34;0.10;;;0.10;;
66680;SDS011;53575;51.366;12.350;2023-06-22T05:54:00;0.10;;;0.10;;
66680;SDS011;53575;51.366;12.350;2023-06-22T05:56:25;0.38;;;0.38;;
66680;SDS011;53575;51.366;12.350;2023-06-22T05:58:51;0.10;;;0.10;;
66680;SDS011;53575;51.366;12.350;2023-06-22T06:01:16;0.20;;;0.20;;
66680;SDS011;53575;51.366;12.350;2023-06-22T06:03:42;0.10;;;0.10;;
66680;SDS011;53575;51.366;12.350;2023-06-22T06:06:07;0.10;;;0.10;;
66680;SDS011;53575;51.366;12.350;2023-06-22T06:08:33;0.10;;;0.10;;
66680;SDS011;53575;51.366;12.350;2023-06-22T06:10:58;0.10;;;0.10;;
66680;SDS011;53575;51.366;12.350;2023-06-22T06:13:24;0.17;;;0.17;;
66680;SDS011;53575;51.366;12.350;2023-06-22T06:15:49;0.10;;;0.10;;
66680;SDS011;53575;51.366;12.350;2023-06-22T06:18:20;0.10;;;0.10;;
66680;SDS011;53575;51.366;12.350;2023-06-22T06:20:45;0.10;;;0.10;;
66680;SDS011;53575;51.366;12.350;2023-06-22T06:23:11;0.10;;;0.10;;
66680;SDS011;53575;51.366;12.350;2023-06-22T06:25:36;0.00;;;0.00;;
66680;SDS011;53575;51.366;12.350;2023-06-22T06:28:01;0.10;;;0.10;;
66680;SDS011;53575;51.366;12.350;2023-06-22T06:30:28;0.10;;;0.10;;
66680;SDS011;53575;51.366;12.350;2023-06-22T06:32:54;0.10;;;0.10;;
66680;SDS011;53575;51.366;12.350;2023-06-22T06:35:20;0.10;;;0.10;;
66680;SDS011;53575;51.366;12.350;2023-06-22T06:37:47;0.00;;;0.00;;
66680;SDS011;53575;51.366;12.350;2023-06-22T06:40:14;0.10;;;0.10;;
66680;SDS011;53575;51.366;12.350;2023-06-22T06:42:42;0.10;;;0.10;;
66680;SDS011;53575;51.366;12.350;2023-06-22T06:45:20;0.10;;;0.10;;
66680;SDS011;53575;51.366;12.350;2023-06-22T06:47:47;0.10;;;0.10;;
66680;SDS011;53575;51.366;12.350;2023-06-22T06:50:13;0.10;;;0.10;;
66680;SDS011;53575;51.366;12.350;2023-06-22T06:52:39;0.10;;;0.10;;
66680;SDS011;53575;51.366;12.350;2023-06-22T06:55:05;0.10;;;0.10;;
66680;SDS011;53575;51.366;12.350;2023-06-22T06:57:33;0.10;;;0.10;;
66680;SDS011;53575;51.366;12.350;2023-06-22T06:59:58;0.10;;;0.10;;
66680;SDS011;53575;51.366;12.350;2023-06-22T07:02:25;0.00;;;0.00;;
66680;SDS011;53575;51.366;12.350;2023-06-22T07:04:52;0.10;;;0.10;;
66680;SDS011;53575;51.366;12.350;2023-06-22T07:07:20;0.10;;;0.10;;
66680;SDS011;53575;51.366;12.350;2023-06-22T07:09:46;0.10;;;0.10;;
66680;SDS011;53575;51.366;12.350;2023-06-22T07:12:11;0.10;;;0.10;;
66680;SDS011;53575;51.366;12.350;2023-06-22T07:14:37;0.00;;;0.00;;
66680;SDS011;53575;51.366;12.350;2023-06-22T07:17:02;0.00;;;0.00;;
66680;SDS011;53575;51.366;12.350;2023-06-22T07:19:28;0.10;;;0.10;;
66680;SDS011;53575;51.366;12.350;2023-06-22T07:21:54;0.10;;;0.10;;
66680;SDS011;53575;51.366;12.350;2023-06-22T07:24:20;0.10;;;0.10;;
66680;SDS011;53575;51.366;12.350;2023-06-22T07:26:50;0.10;;;0.10;;
66680;SDS011;53575;51.366;12.350;2023-06-22T07:29:22;0.10;;;0.10;;
66680;SDS011;53575;51.366;12.350;2023-06-22T07:31:47;0.10;;;0.10;;
66680;SDS011;53575;51.366;12.350;2023-06-22T07:34:15;0.00;;;0.00;;
66680;SDS011;53575;51.366;12.350;2023-06-22T07:36:40;0.10;;;0.10;;
66680;SDS011;53575;51.366;12.350;2023-06-22T07:39:06;0.10;;;0.10;;
66680;SDS011;53575;51.366;12.350;2023-06-22T07:41:32;0.20;;;0.20;;
66680;SDS011;53575;51.366;12.350;2023-06-22T07:43:57;0.10;;;0.10;;
66680;SDS011;53575;51.366;12.350;2023-06-22T07:46:23;0.00;;;0.00;;
66680;SDS011;53575;51.366;12.350;2023-06-22T07:48:49;0.00;;;0.00;;
66680;SDS011;53575;51.366;12.350;2023-06-22T07:51:14;0.08;;;0.08;;
66680;SDS011;53575;51.366;12.350;2023-06-22T07:53:40;0.00;;;0.00;;
66680;SDS011;53575;51.366;12.350;2023-06-22T07:56:07;0.10;;;0.10;;
66680;SDS011;53575;51.366;12.350;2023-06-22T07:58:35;0.00;;;0.00;;
66680;SDS011;53575;51.366;12.350;2023-06-22T08:01:00;0.05;;;0.05;;
66680;SDS011;53575;51.366;12.350;2023-06-22T08:03:26;0.00;;;0.00;;
66680;SDS011;53575;51.366;12.350;2023-06-22T08:05:51;0.00;;;0.00;;
66680;SDS011;53575;51.366;12.350;2023-06-22T08:08:17;0.00;;;0.00;;
66680;SDS011;53575;51.366;12.350;2023-06-22T08:10:42;0.00;;;0.00;;
66680;SDS011;53575;51.366;12.350;2023-06-22T08:13:08;0.00;;;0.00;;
66680;SDS011;53575;51.366;12.350;2023-06-22T08:15:33;0.05;;;0.05;;
66680;SDS011;53575;51.366;12.350;2023-06-22T08:17:59;0.00;;;0.00;;
66680;SDS011;53575;51.366;12.350;2023-06-22T08:20:25;0.00;;;0.00;;
66680;SDS011;53575;51.366;12.350;2023-06-22T08:22:51;0.00;;;0.00;;
66680;SDS011;53575;51.366;12.350;2023-06-22T08:25:18;0.00;;;0.00;;
66680;SDS011;53575;51.366;12.350;2023-06-22T08:27:45;0.00;;;0.00;;
66680;SDS011;53575;51.366;12.350;2023-06-22T08:30:12;0.00;;;0.00;;
66680;SDS011;53575;51.366;12.350;2023-06-22T08:32:37;0.00;;;0.00;;
66680;SDS011;53575;51.366;12.350;2023-06-22T08:35:03;0.00;;;0.00;;
66680;SDS011;53575;51.366;12.350;2023-06-22T08:37:29;0.08;;;0.08;;
66680;SDS011;53575;51.366;12.350;2023-06-22T08:40:00;0.00;;;0.00;;
66680;SDS011;53575;51.366;12.350;2023-06-22T08:42:28;0.00;;;0.00;;
66680;SDS011;53575;51.366;12.350;2023-06-22T08:44:53;0.00;;;0.00;;
66680;SDS011;53575;51.366;12.350;2023-06-22T08:47:19;0.05;;;0.05;;
66680;SDS011;53575;51.366;12.350;2023-06-22T08:49:45;0.00;;;0.00;;
66680;SDS011;53575;51.366;12.350;2023-06-22T08:52:10;0.00;;;0.00;;
66680;SDS011;53575;51.366;12.350;2023-06-22T08:54:36;0.10;;;0.10;;
66680;SDS011;53575;51.366;12.350;2023-06-22T08:57:01;0.00;;;0.00;;
66680;SDS011;53575;51.366;12.350;2023-06-22T08:59:27;0.05;;;0.05;;
66680;SDS011;53575;51.366;12.350;2023-06-22T09:01:53;6.80;;;4.90;;
66680;SDS011;53575;51.366;12.350;2023-06-22T09:04:18;11.13;;;7.43;;
66680;SDS011;53575;51.366;12.350;2023-06-22T09:06:47;10.00;;;8.30;;
66680;SDS011;53575;51.366;12.350;2023-06-22T09:09:13;9.35;;;7.90;;
66680;SDS011;53575;51.366;12.350;2023-06-22T09:11:39;8.75;;;7.72;;
66680;SDS011;53575;51.366;12.350;2023-06-22T09:14:05;10.95;;;7.05;;
66680;SDS011;53575;51.366;12.350;2023-06-22T09:16:30;8.38;;;7.03;;
66680;SDS011;53575;51.366;12.350;2023-06-22T09:18:56;9.52;;;7.70;;
66680;SDS011;53575;51.366;12.350;2023-06-22T09:21:21;8.82;;;7.45;;
66680;SDS011;53575;51.366;12.350;2023-06-22T09:23:47;0.00;;;0.00;;
66680;SDS011;53575;51.366;12.350;2023-06-22T09:26:16;0.00;;;0.00;;
66680;SDS011;53575;51.366;12.350;2023-06-22T09:31:09;0.00;;;0.00;;
66680;SDS011;53575;51.366;12.350;2023-06-22T09:33:35;5.57;;;4.82;;
66680;SDS011;53575;51.366;12.350;2023-06-22T09:36:03;7.70;;;6.67;;
66680;SDS011;53575;51.366;12.350;2023-06-22T09:38:30;8.70;;;6.82;;
66680;SDS011;53575;51.366;12.350;2023-06-22T09:40:55;7.25;;;6.45;;
66680;SDS011;53575;51.366;12.350;2023-06-22T09:43:21;8.32;;;6.43;;
66680;SDS011;53575;51.366;12.350;2023-06-22T09:45:46;7.55;;;6.85;;
66680;SDS011;53575;51.366;12.350;2023-06-22T09:48:11;8.30;;;6.55;;
66680;SDS011;53575;51.366;12.350;2023-06-22T09:50:37;7.13;;;6.43;;
66680;SDS011;53575;51.366;12.350;2023-06-22T09:53:02;8.13;;;6.63;;
66680;SDS011;53575;51.366;12.350;2023-06-22T09:55:28;15.55;;;12.43;;
66680;SDS011;53575;51.366;12.350;2023-06-22T09:57:53;11.23;;;9.77;;
66680;SDS011;53575;51.366;12.350;2023-06-22T10:00:20;9.40;;;7.22;;
66680;SDS011;53575;51.366;12.350;2023-06-22T10:02:47;9.48;;;6.93;;
66680;SDS011;53575;51.366;12.350;2023-06-22T10:05:13;9.00;;;7.13;;
66680;SDS011;53575;51.366;12.350;2023-06-22T10:07:38;9.80;;;6.70;;
66680;SDS011;53575;51.366;12.350;2023-06-22T10:10:07;9.85;;;7.05;;
66680;SDS011;53575;51.366;12.350;2023-06-22T10:12:33;11.98;;;6.70;;
66680;SDS011;53575;51.366;12.350;2023-06-22T10:14:58;8.02;;;7.22;;
66680;SDS011;53575;51.366;12.350;2023-06-22T10:17:24;9.25;;;7.63;;
66680;SDS011;53575;51.366;12.350;2023-06-22T10:19:49;11.00;;;6.80;;
66680;SDS011;53575;51.366;12.350;2023-06-22T10:22:15;10.18;;;7.18;;
66680;SDS011;53575;51.366;12.350;2023-06-22T10:24:40;7.43;;;6.35;;
66680;SDS011;53575;51.366;12.350;2023-06-22T10:27:10;13.75;;;6.30;;
66680;SDS011;53575;51.366;12.350;2023-06-22T10:29:36;10.75;;;6.40;;
66680;SDS011;53575;51.366;12.350;2023-06-22T10:32:01;7.53;;;6.47;;
66680;SDS011;53575;51.366;12.350;2023-06-22T10:34:27;7.05;;;6.35;;
66680;SDS011;53575;51.366;12.350;2023-06-22T10:36:52;7.82;;;6.13;;
66680;SDS011;53575;51.366;12.350;2023-06-22T10:39:18;10.32;;;5.88;;
66680;SDS011;53575;51.366;12.350;2023-06-22T10:41:43;9.18;;;7.82;;
66680;SDS011;53575;51.366;12.350;2023-06-22T10:44:09;11.68;;;10.48;;
66680;SDS011;53575;51.366;12.350;2023-06-22T10:46:34;7.82;;;6.82;;
66680;SDS011;53575;51.366;12.350;2023-06-22T10:49:00;6.57;;;5.88;;
66680;SDS011;53575;51.366;12.350;2023-06-22T10:51:25;7.25;;;5.68;;
66680;SDS011;53575;51.366;12.350;2023-06-22T10:53:53;6.95;;;6.25;;
66680;SDS011;53575;51.366;12.350;2023-06-22T10:56:18;9.32;;;5.95;;
66680;SDS011;53575;51.366;12.350;2023-06-22T10:58:44;9.68;;;6.25;;
66680;SDS011;53575;51.366;12.350;2023-06-22T11:01:10;8.10;;;6.80;;
66680;SDS011;53575;51.366;12.350;2023-06-22T11:03:36;9.45;;;8.50;;
66680;SDS011;53575;51.366;12.350;2023-06-22T11:06:01;7.43;;;6.60;;
66680;SDS011;53575;51.366;12.350;2023-06-22T11:08:26;9.07;;;6.38;;
66680;SDS011;53575;51.366;12.350;2023-06-22T11:10:52;9.93;;;5.95;;
66680;SDS011;53575;51.366;12.350;2023-06-22T11:13:17;8.02;;;6.60;;
66680;SDS011;53575;51.366;12.350;2023-06-22T11:15:43;6.68;;;5.97;;
66680;SDS011;53575;51.366;12.350;2023-06-22T11:18:08;6.47;;;5.47;;
66680;SDS011;53575;51.366;12.350;2023-06-22T11:20:34;6.43;;;5.78;;
66680;SDS011;53575;51.366;12.350;2023-06-22T11:23:03;7.20;;;5.45;;
66680;SDS011;53575;51.366;12.350;2023-06-22T11:25:31;6.93;;;5.30;;
66680;SDS011;53575;51.366;12.350;2023-06-22T11:27:56;9.38;;;6.28;;
66680;SDS011;53575;51.366;12.350;2023-06-22T11:30:21;6.85;;;5.43;;
66680;SDS011;53575;51.366;12.350;2023-06-22T11:32:48;6.60;;;5.90;;
66680;SDS011;53575;51.366;12.350;2023-06-22T11:35:13;6.68;;;5.45;;
66680;SDS011;53575;51.366;12.350;2023-06-22T11:37:39;8.05;;;5.75;;
66680;SDS011;53575;51.366;12.350;2023-06-22T11:40:04;6.93;;;6.03;;
66680;SDS011;53575;51.366;12.350;2023-06-22T11:42:31;6.10;;;5.50;;
66680;SDS011;53575;51.366;12.350;2023-06-22T11:44:57;10.65;;;6.22;;
66680;SDS011;53575;51.366;12.350;2023-06-22T11:47:22;6.75;;;5.30;;
66680;SDS011;53575;51.366;12.350;2023-06-22T11:49:48;5.88;;;5.28;;
66680;SDS011;53575;51.366;12.350;2023-06-22T11:52:13;8.63;;;5.57;;
66680;SDS011;53575;51.366;12.350;2023-06-22T11:54:39;8.20;;;6.60;;
66680;SDS011;53575;51.366;12.350;2023-06-22T11:57:04;7.03;;;5.60;;
66680;SDS011;53575;51.366;12.350;2023-06-22T11:59:30;8.27;;;5.57;;
66680;SDS011;53575;51.366;12.350;2023-06-22T12:01:55;8.38;;;5.88;;
66680;SDS011;53575;51.366;12.350;2023-06-22T12:04:23;10.52;;;6.25;;
66680;SDS011;53575;51.366;12.350;2023-06-22T12:06:48;6.90;;;6.20;;
66680;SDS011;53575;51.366;12.350;2023-06-22T12:09:13;6.43;;;5.82;;
66680;SDS011;53575;51.366;12.350;2023-06-22T12:11:39;8.48;;;6.10;;
66680;SDS011;53575;51.366;12.350;2023-06-22T12:14:04;8.68;;;6.28;;
66680;SDS011;53575;51.366;12.350;2023-06-22T12:16:30;6.57;;;5.75;;
66680;SDS011;53575;51.366;12.350;2023-06-22T12:18:55;6.97;;;6.28;;
66680;SDS011;53575;51.366;12.350;2023-06-22T12:21:20;6.65;;;5.63;;
66680;SDS011;53575;51.366;12.350;2023-06-22T12:23:46;5.82;;;5.20;;
66680;SDS011;53575;51.366;12.350;2023-06-22T12:26:11;9.20;;;5.35;;
66680;SDS011;53575;51.366;12.350;2023-06-22T12:28:37;7.00;;;5.80;;
66680;SDS011;53575;51.366;12.350;2023-06-22T12:31:02;6.85;;;6.15;;
66680;SDS011;53575;51.366;12.350;2023-06-22T12:33:27;5.88;;;5.30;;
66680;SDS011;53575;51.366;12.350;2023-06-22T12:35:53;9.55;;;5.90;;
66680;SDS011;53575;51.366;12.350;2023-06-22T12:38:18;7.65;;;5.57;;
66680;SDS011;53575;51.366;12.350;2023-06-22T12:40:43;6.93;;;5.47;;
66680;SDS011;53575;51.366;12.350;2023-06-22T12:43:09;7.72;;;5.68;;
66680;SDS011;53575;51.366;12.350;2023-06-22T12:45:34;7.95;;;7.22;;
66680;SDS011;53575;51.366;12.350;2023-06-22T12:48:00;6.25;;;5.57;;
66680;SDS011;53575;51.366;12.350;2023-06-22T12:50:26;7.63;;;5.70;;
66680;SDS011;53575;51.366;12.350;2023-06-22T12:52:51;5.93;;;5.40;;
66680;SDS011;53575;51.366;12.350;2023-06-22T12:55:17;7.50;;;5.80;;
66680;SDS011;53575;51.366;12.350;2023-06-22T12:57:42;6.40;;;5.43;;
66680;SDS011;53575;51.366;12.350;2023-06-22T13:00:08;11.60;;;5.60;;
66680;SDS011;53575;51.366;12.350;2023-06-22T13:02:35;6.50;;;5.20;;
66680;SDS011;53575;51.366;12.350;2023-06-22T13:05:02;6.65;;;5.60;;
66680;SDS011;53575;51.366;12.350;2023-06-22T13:07:30;6.63;;;6.00;;
66680;SDS011;53575;51.366;12.350;2023-06-22T13:09:55;15.25;;;9.98;;
66680;SDS011;53575;51.366;12.350;2023-06-22T13:12:21;7.25;;;5.18;;
66680;SDS011;53575;51.366;12.350;2023-06-22T13:14:46;11.35;;;6.10;;
66680;SDS011;53575;51.366;12.350;2023-06-22T13:17:12;7.68;;;5.97;;
66680;SDS011;53575;51.366;12.350;2023-06-22T13:19:39;11.23;;;6.43;;
66680;SDS011;53575;51.366;12.350;2023-06-22T13:22:04;6.55;;;5.82;;
66680;SDS011;53575;51.366;12.350;2023-06-22T13:24:30;7.82;;;5.43;;
66680;SDS011;53575;51.366;12.350;2023-06-22T13:26:56;6.53;;;5.57;;
66680;SDS011;53575;51.366;12.350;2023-06-22T13:29:21;7.38;;;5.43;;
66680;SDS011;53575;51.366;12.350;2023-06-22T13:31:46;5.90;;;5.40;;
66680;SDS011;53575;51.366;12.350;2023-06-22T13:34:12;11.50;;;6.30;;
66680;SDS011;53575;51.366;12.350;2023-06-22T13:36:37;6.75;;;4.72;;
66680;SDS011;53575;51.366;12.350;2023-06-22T13:39:04;9.65;;;5.22;;
66680;SDS011;53575;51.366;12.350;2023-06-22T13:41:29;9.10;;;5.40;;
66680;SDS011;53575;51.366;12.350;2023-06-22T13:43:55;7.25;;;5.18;;
66680;SDS011;53575;51.366;12.350;2023-06-22T13:46:20;7.07;;;5.68;;
66680;SDS011;53575;51.366;12.350;2023-06-22T13:48:45;8.25;;;5.63;;
66680;SDS011;53575;51.366;12.350;2023-06-22T13:51:11;5.20;;;4.72;;
66680;SDS011;53575;51.366;12.350;2023-06-22T13:53:36;6.95;;;5.38;;
66680;SDS011;53575;51.366;12.350;2023-06-22T13:56:02;6.18;;;5.03;;
66680;SDS011;53575;51.366;12.350;2023-06-22T13:58:28;6.63;;;6.03;;
66680;SDS011;53575;51.366;12.350;2023-06-22T14:00:53;8.50;;;5.90;;
66680;SDS011;53575;51.366;12.350;2023-06-22T14:03:19;8.60;;;5.65;;
66680;SDS011;53575;51.366;12.350;2023-06-22T14:05:44;7.28;;;5.25;;
66680;SDS011;53575;51.366;12.350;2023-06-22T14:08:10;5.70;;;5.10;;
66680;SDS011;53575;51.366;12.350;2023-06-22T14:10:36;6.97;;;5.38;;
66680;SDS011;53575;51.366;12.350;2023-06-22T14:13:02;6.72;;;6.07;;
66680;SDS011;53575;51.366;12.350;2023-06-22T14:15:27;6.88;;;5.80;;
66680;SDS011;53575;51.366;12.350;2023-06-22T14:17:52;6.45;;;5.78;;
66680;SDS011;53575;51.366;12.350;2023-06-22T14:20:18;6.57;;;5.47;;
66680;SDS011;53575;51.366;12.350;2023-06-22T14:22:43;6.72;;;5.45;;
66680;SDS011;53575;51.366;12.350;2023-06-22T14:25:09;6.75;;;5.85;;
66680;SDS011;53575;51.366;12.350;2023-06-22T14:27:34;9.38;;;5.85;;
66680;SDS011;53575;51.366;12.350;2023-06-22T14:30:00;8.25;;;5.82;;
66680;SDS011;53575;51.366;12.350;2023-06-22T14:32:27;7.00;;;5.88;;
66680;SDS011;53575;51.366;12.350;2023-06-22T14:34:54;7.13;;;6.40;;
66680;SDS011;53575;51.366;12.350;2023-06-22T14:37:20;7.07;;;6.38;;
66680;SDS011;53575;51.366;12.350;2023-06-22T14:39:45;9.05;;;5.68;;
66680;SDS011;53575;51.366;12.350;2023-06-22T14:42:11;6.82;;;6.13;;